sensor_id;sensor_type;location;lat;lon;timestamp;P1;durP1;ratioP1;P2;durP2;ratioP2
4210;SDS011;2119;48.828;12.396;2023-04-26T00:00:08;7.87;;;4.10;;
4210;SDS011;2119;48.828;12.396;2023-04-26T00:05:11;7.83;;;4.00;;
4210;SDS011;2119;48.828;12.396;2023-04-26T00:10:14;4.30;;;3.90;;
4210;SDS011;2119;48.828;12.396;2023-04-26T00:15:21;4.90;;;3.90;;
4210;SDS011;2119;48.828;12.396;2023-04-26T00:20:22;5.07;;;3.60;;
4210;SDS011;2119;48.828;12.396;2023-04-26T00:25:22;4.67;;;4.23;;
4210;SDS011;2119;48.828;12.396;2023-04-26T00:30:23;4.25;;;3.85;;
4210;SDS011;2119;48.828;12.396;2023-04-26T00:35:23;6.95;;;3.80;;
4210;SDS011;2119;48.828;12.396;2023-04-26T00:40:23;4.17;;;3.77;;
4210;SDS011;2119;48.828;12.396;2023-04-26T00:45:23;9.43;;;4.40;;
4210;SDS011;2119;48.828;12.396;2023-04-26T00:50:23;5.93;;;4.80;;
4210;SDS011;2119;48.828;12.396;2023-04-26T00:55:24;5.50;;;4.83;;
4210;SDS011;2119;48.828;12.396;2023-04-26T01:00:27;5.10;;;4.60;;
4210;SDS011;2119;48.828;12.396;2023-04-26T01:05:27;7.40;;;4.90;;
4210;SDS011;2119;48.828;12.396;2023-04-26T01:10:28;6.13;;;5.40;;
4210;SDS011;2119;48.828;12.396;2023-04-26T01:15:29;7.57;;;5.20;;
4210;SDS011;2119;48.828;12.396;2023-04-26T01:20:29;11.40;;;5.57;;
4210;SDS011;2119;48.828;12.396;2023-04-26T01:25:30;6.50;;;5.55;;
4210;SDS011;2119;48.828;12.396;2023-04-26T01:30:30;8.23;;;5.20;;
4210;SDS011;2119;48.828;12.396;2023-04-26T01:35:30;6.10;;;5.47;;
4210;SDS011;2119;48.828;12.396;2023-04-26T01:40:30;6.37;;;5.70;;
4210;SDS011;2119;48.828;12.396;2023-04-26T01:45:31;9.33;;;6.33;;
4210;SDS011;2119;48.828;12.396;2023-04-26T01:50:32;5.97;;;5.43;;
4210;SDS011;2119;48.828;12.396;2023-04-26T01:55:32;6.70;;;5.63;;
4210;SDS011;2119;48.828;12.396;2023-04-26T02:00:35;13.30;;;6.33;;
4210;SDS011;2119;48.828;12.396;2023-04-26T02:05:36;8.70;;;5.73;;
4210;SDS011;2119;48.828;12.396;2023-04-26T02:10:36;8.20;;;6.20;;
4210;SDS011;2119;48.828;12.396;2023-04-26T02:15:40;6.67;;;5.47;;
4210;SDS011;2119;48.828;12.396;2023-04-26T02:20:41;7.17;;;5.80;;
4210;SDS011;2119;48.828;12.396;2023-04-26T02:25:45;9.57;;;6.10;;
4210;SDS011;2119;48.828;12.396;2023-04-26T02:30:46;5.90;;;5.17;;
4210;SDS011;2119;48.828;12.396;2023-04-26T02:35:46;7.50;;;5.85;;
4210;SDS011;2119;48.828;12.396;2023-04-26T02:40:47;7.67;;;5.10;;
4210;SDS011;2119;48.828;12.396;2023-04-26T02:45:47;8.27;;;5.80;;
4210;SDS011;2119;48.828;12.396;2023-04-26T02:50:47;7.78;;;5.45;;
4210;SDS011;2119;48.828;12.396;2023-04-26T02:55:48;6.75;;;6.05;;
4210;SDS011;2119;48.828;12.396;2023-04-26T03:00:48;9.55;;;6.65;;
4210;SDS011;2119;48.828;12.396;2023-04-26T03:05:48;10.13;;;5.95;;
4210;SDS011;2119;48.828;12.396;2023-04-26T03:10:49;7.60;;;6.68;;
4210;SDS011;2119;48.828;12.396;2023-04-26T03:15:49;7.13;;;5.47;;
4210;SDS011;2119;48.828;12.396;2023-04-26T03:20:52;7.07;;;5.90;;
4210;SDS011;2119;48.828;12.396;2023-04-26T03:25:55;8.77;;;6.10;;
4210;SDS011;2119;48.828;12.396;2023-04-26T03:31:02;7.37;;;6.63;;
4210;SDS011;2119;48.828;12.396;2023-04-26T03:36:09;11.40;;;7.50;;
4210;SDS011;2119;48.828;12.396;2023-04-26T03:41:12;11.30;;;8.30;;
4210;SDS011;2119;48.828;12.396;2023-04-26T03:46:20;11.83;;;8.47;;
4210;SDS011;2119;48.828;12.396;2023-04-26T03:51:25;9.80;;;7.07;;
4210;SDS011;2119;48.828;12.396;2023-04-26T03:56:28;10.50;;;6.80;;
4210;SDS011;2119;48.828;12.396;2023-04-26T04:01:29;11.20;;;8.37;;
4210;SDS011;2119;48.828;12.396;2023-04-26T04:06:30;13.37;;;7.97;;
4210;SDS011;2119;48.828;12.396;2023-04-26T04:11:31;11.90;;;8.13;;
4210;SDS011;2119;48.828;12.396;2023-04-26T04:16:32;8.60;;;6.70;;
4210;SDS011;2119;48.828;12.396;2023-04-26T04:21:33;9.53;;;7.30;;
4210;SDS011;2119;48.828;12.396;2023-04-26T04:26:38;8.70;;;6.50;;
4210;SDS011;2119;48.828;12.396;2023-04-26T04:31:39;8.40;;;6.50;;
4210;SDS011;2119;48.828;12.396;2023-04-26T04:36:40;10.83;;;8.00;;
4210;SDS011;2119;48.828;12.396;2023-04-26T04:41:40;9.55;;;6.95;;
4210;SDS011;2119;48.828;12.396;2023-04-26T04:46:46;11.77;;;7.77;;
4210;SDS011;2119;48.828;12.396;2023-04-26T04:51:49;17.38;;;8.23;;
4210;SDS011;2119;48.828;12.396;2023-04-26T04:56:49;11.70;;;8.50;;
4210;SDS011;2119;48.828;12.396;2023-04-26T05:01:50;15.20;;;10.60;;
4210;SDS011;2119;48.828;12.396;2023-04-26T05:06:50;10.33;;;7.47;;
4210;SDS011;2119;48.828;12.396;2023-04-26T05:11:51;10.93;;;6.43;;
4210;SDS011;2119;48.828;12.396;2023-04-26T05:16:51;7.10;;;5.70;;
4210;SDS011;2119;48.828;12.396;2023-04-26T05:21:53;14.15;;;6.55;;
4210;SDS011;2119;48.828;12.396;2023-04-26T05:27:01;11.43;;;6.87;;
4210;SDS011;2119;48.828;12.396;2023-04-26T05:32:05;8.57;;;5.77;;
4210;SDS011;2119;48.828;12.396;2023-04-26T05:42:08;7.83;;;5.53;;
4210;SDS011;2119;48.828;12.396;2023-04-26T05:47:10;6.70;;;5.30;;
4210;SDS011;2119;48.828;12.396;2023-04-26T05:52:10;7.37;;;5.23;;
4210;SDS011;2119;48.828;12.396;2023-04-26T05:57:11;8.63;;;4.70;;
4210;SDS011;2119;48.828;12.396;2023-04-26T06:02:11;6.83;;;5.47;;
4210;SDS011;2119;48.828;12.396;2023-04-26T06:07:12;8.50;;;4.95;;
4210;SDS011;2119;48.828;12.396;2023-04-26T06:12:13;7.95;;;4.55;;
4210;SDS011;2119;48.828;12.396;2023-04-26T06:17:16;5.53;;;4.33;;
4210;SDS011;2119;48.828;12.396;2023-04-26T06:22:17;12.20;;;5.00;;
4210;SDS011;2119;48.828;12.396;2023-04-26T06:27:17;5.53;;;4.03;;
4210;SDS011;2119;48.828;12.396;2023-04-26T06:32:19;10.43;;;4.88;;
4210;SDS011;2119;48.828;12.396;2023-04-26T06:37:19;6.00;;;4.77;;
4210;SDS011;2119;48.828;12.396;2023-04-26T06:42:20;8.73;;;4.50;;
4210;SDS011;2119;48.828;12.396;2023-04-26T06:47:21;6.70;;;4.37;;
4210;SDS011;2119;48.828;12.396;2023-04-26T06:52:34;5.32;;;4.45;;
4210;SDS011;2119;48.828;12.396;2023-04-26T06:57:35;8.83;;;3.90;;
4210;SDS011;2119;48.828;12.396;2023-04-26T07:02:35;6.30;;;2.90;;
4210;SDS011;2119;48.828;12.396;2023-04-26T07:07:36;3.00;;;2.70;;
4210;SDS011;2119;48.828;12.396;2023-04-26T07:12:36;3.78;;;3.10;;
4210;SDS011;2119;48.828;12.396;2023-04-26T07:17:36;3.47;;;2.30;;
4210;SDS011;2119;48.828;12.396;2023-04-26T07:22:36;2.10;;;1.90;;
4210;SDS011;2119;48.828;12.396;2023-04-26T07:27:39;9.13;;;2.78;;
4210;SDS011;2119;48.828;12.396;2023-04-26T07:32:43;5.43;;;2.77;;
4210;SDS011;2119;48.828;12.396;2023-04-26T07:37:45;5.00;;;3.20;;
4210;SDS011;2119;48.828;12.396;2023-04-26T07:42:48;3.50;;;2.80;;
4210;SDS011;2119;48.828;12.396;2023-04-26T07:47:48;2.97;;;2.20;;
4210;SDS011;2119;48.828;12.396;2023-04-26T07:52:48;4.30;;;2.73;;
4210;SDS011;2119;48.828;12.396;2023-04-26T07:57:48;4.78;;;2.20;;
4210;SDS011;2119;48.828;12.396;2023-04-26T08:02:54;5.63;;;2.55;;
4210;SDS011;2119;48.828;12.396;2023-04-26T08:07:58;3.03;;;2.83;;
4210;SDS011;2119;48.828;12.396;2023-04-26T08:13:02;2.70;;;2.50;;
4210;SDS011;2119;48.828;12.396;2023-04-26T08:18:02;8.50;;;2.40;;
4210;SDS011;2119;48.828;12.396;2023-04-26T08:23:04;2.50;;;2.30;;
4210;SDS011;2119;48.828;12.396;2023-04-26T08:28:07;3.60;;;2.80;;
4210;SDS011;2119;48.828;12.396;2023-04-26T08:33:16;3.73;;;2.47;;
4210;SDS011;2119;48.828;12.396;2023-04-26T08:38:20;2.80;;;2.20;;
4210;SDS011;2119;48.828;12.396;2023-04-26T08:43:28;3.10;;;2.70;;
4210;SDS011;2119;48.828;12.396;2023-04-26T08:48:28;3.47;;;3.17;;
4210;SDS011;2119;48.828;12.396;2023-04-26T08:53:33;14.83;;;3.90;;
4210;SDS011;2119;48.828;12.396;2023-04-26T08:58:46;3.47;;;2.77;;
4210;SDS011;2119;48.828;12.396;2023-04-26T09:03:48;3.13;;;2.83;;
4210;SDS011;2119;48.828;12.396;2023-04-26T09:08:50;5.43;;;3.60;;
4210;SDS011;2119;48.828;12.396;2023-04-26T09:13:51;4.80;;;2.70;;
4210;SDS011;2119;48.828;12.396;2023-04-26T09:19:05;3.87;;;2.70;;
4210;SDS011;2119;48.828;12.396;2023-04-26T09:24:05;3.07;;;2.80;;
4210;SDS011;2119;48.828;12.396;2023-04-26T09:34:43;3.37;;;3.07;;
4210;SDS011;2119;48.828;12.396;2023-04-26T09:39:44;3.50;;;3.20;;
4210;SDS011;2119;48.828;12.396;2023-04-26T09:44:44;4.10;;;3.00;;
4210;SDS011;2119;48.828;12.396;2023-04-26T09:49:49;4.00;;;2.67;;
4210;SDS011;2119;48.828;12.396;2023-04-26T09:54:51;3.20;;;3.00;;
4210;SDS011;2119;48.828;12.396;2023-04-26T09:59:58;7.60;;;3.37;;
4210;SDS011;2119;48.828;12.396;2023-04-26T10:05:05;5.60;;;3.03;;
4210;SDS011;2119;48.828;12.396;2023-04-26T10:10:07;5.70;;;2.80;;
4210;SDS011;2119;48.828;12.396;2023-04-26T10:20:20;6.47;;;3.20;;
4210;SDS011;2119;48.828;12.396;2023-04-26T10:25:33;3.30;;;2.87;;
4210;SDS011;2119;48.828;12.396;2023-04-26T10:30:52;3.87;;;3.27;;
4210;SDS011;2119;48.828;12.396;2023-04-26T10:36:08;2.87;;;2.50;;
4210;SDS011;2119;48.828;12.396;2023-04-26T10:46:35;4.90;;;2.10;;
4210;SDS011;2119;48.828;12.396;2023-04-26T10:51:38;4.30;;;2.60;;
4210;SDS011;2119;48.828;12.396;2023-04-26T11:01:50;2.50;;;2.23;;
4210;SDS011;2119;48.828;12.396;2023-04-26T11:06:53;2.93;;;2.73;;
4210;SDS011;2119;48.828;12.396;2023-04-26T11:17:05;4.13;;;2.50;;
4210;SDS011;2119;48.828;12.396;2023-04-26T11:22:20;4.70;;;2.83;;
4210;SDS011;2119;48.828;12.396;2023-04-26T11:27:23;6.83;;;2.37;;
4210;SDS011;2119;48.828;12.396;2023-04-26T11:32:28;4.97;;;2.63;;
4210;SDS011;2119;48.828;12.396;2023-04-26T11:37:32;4.53;;;2.73;;
4210;SDS011;2119;48.828;12.396;2023-04-26T11:42:33;7.00;;;2.70;;
4210;SDS011;2119;48.828;12.396;2023-04-26T11:47:35;5.78;;;2.50;;
4210;SDS011;2119;48.828;12.396;2023-04-26T11:52:35;3.07;;;2.63;;
4210;SDS011;2119;48.828;12.396;2023-04-26T11:57:36;6.70;;;2.20;;
4210;SDS011;2119;48.828;12.396;2023-04-26T12:02:37;4.82;;;2.25;;
4210;SDS011;2119;48.828;12.396;2023-04-26T12:07:37;2.20;;;2.03;;
4210;SDS011;2119;48.828;12.396;2023-04-26T12:12:42;3.30;;;2.47;;
4210;SDS011;2119;48.828;12.396;2023-04-26T12:23:14;3.50;;;2.77;;
4210;SDS011;2119;48.828;12.396;2023-04-26T12:33:40;2.77;;;2.20;;
4210;SDS011;2119;48.828;12.396;2023-04-26T12:38:50;4.80;;;2.50;;
4210;SDS011;2119;48.828;12.396;2023-04-26T12:43:50;3.50;;;2.37;;
4210;SDS011;2119;48.828;12.396;2023-04-26T12:48:52;2.30;;;2.10;;
4210;SDS011;2119;48.828;12.396;2023-04-26T12:53:57;2.40;;;2.20;;
4210;SDS011;2119;48.828;12.396;2023-04-26T12:58:58;2.97;;;2.67;;
4210;SDS011;2119;48.828;12.396;2023-04-26T13:03:58;3.13;;;2.03;;
4210;SDS011;2119;48.828;12.396;2023-04-26T13:08:59;4.80;;;2.10;;
4210;SDS011;2119;48.828;12.396;2023-04-26T13:14:03;2.90;;;2.40;;
4210;SDS011;2119;48.828;12.396;2023-04-26T13:19:05;2.53;;;2.33;;
4210;SDS011;2119;48.828;12.396;2023-04-26T13:24:06;3.53;;;2.60;;
4210;SDS011;2119;48.828;12.396;2023-04-26T13:29:19;3.17;;;2.60;;
4210;SDS011;2119;48.828;12.396;2023-04-26T13:34:20;2.30;;;2.10;;
4210;SDS011;2119;48.828;12.396;2023-04-26T13:44:28;3.00;;;2.70;;
4210;SDS011;2119;48.828;12.396;2023-04-26T13:54:50;9.50;;;2.67;;
4210;SDS011;2119;48.828;12.396;2023-04-26T13:59:52;4.07;;;2.40;;
4210;SDS011;2119;48.828;12.396;2023-04-26T14:05:03;4.83;;;2.70;;
4210;SDS011;2119;48.828;12.396;2023-04-26T14:15:24;6.93;;;4.07;;
4210;SDS011;2119;48.828;12.396;2023-04-26T14:25:42;3.60;;;2.50;;
4210;SDS011;2119;48.828;12.396;2023-04-26T14:30:50;4.67;;;2.80;;
4210;SDS011;2119;48.828;12.396;2023-04-26T14:35:52;6.80;;;3.43;;
4210;SDS011;2119;48.828;12.396;2023-04-26T14:40:53;3.20;;;2.50;;
4210;SDS011;2119;48.828;12.396;2023-04-26T14:46:00;3.60;;;2.50;;
4210;SDS011;2119;48.828;12.396;2023-04-26T14:51:02;5.80;;;2.80;;
4210;SDS011;2119;48.828;12.396;2023-04-26T14:56:02;6.63;;;2.97;;
4210;SDS011;2119;48.828;12.396;2023-04-26T15:01:21;3.30;;;2.87;;
4210;SDS011;2119;48.828;12.396;2023-04-26T15:11:43;2.17;;;2.07;;
4210;SDS011;2119;48.828;12.396;2023-04-26T15:16:44;2.47;;;2.27;;
4210;SDS011;2119;48.828;12.396;2023-04-26T15:21:48;6.63;;;3.37;;
4210;SDS011;2119;48.828;12.396;2023-04-26T15:26:50;4.10;;;3.80;;
4210;SDS011;2119;48.828;12.396;2023-04-26T15:42:10;5.27;;;2.80;;
4210;SDS011;2119;48.828;12.396;2023-04-26T15:47:22;15.40;;;8.80;;
4210;SDS011;2119;48.828;12.396;2023-04-26T15:52:35;3.40;;;2.47;;
4210;SDS011;2119;48.828;12.396;2023-04-26T15:57:54;2.83;;;2.20;;
4210;SDS011;2119;48.828;12.396;2023-04-26T16:03:05;3.83;;;3.17;;
4210;SDS011;2119;48.828;12.396;2023-04-26T16:08:07;4.63;;;3.47;;
4210;SDS011;2119;48.828;12.396;2023-04-26T16:13:14;6.57;;;3.50;;
4210;SDS011;2119;48.828;12.396;2023-04-26T16:18:14;5.60;;;3.73;;
4210;SDS011;2119;48.828;12.396;2023-04-26T16:23:15;5.80;;;2.87;;
4210;SDS011;2119;48.828;12.396;2023-04-26T16:28:16;3.30;;;3.00;;
4210;SDS011;2119;48.828;12.396;2023-04-26T16:33:18;4.30;;;2.90;;
4210;SDS011;2119;48.828;12.396;2023-04-26T16:38:18;4.37;;;3.97;;
4210;SDS011;2119;48.828;12.396;2023-04-26T16:48:56;3.90;;;3.50;;
4210;SDS011;2119;48.828;12.396;2023-04-26T16:53:59;7.80;;;3.10;;
4210;SDS011;2119;48.828;12.396;2023-04-26T16:58:59;2.87;;;2.67;;
4210;SDS011;2119;48.828;12.396;2023-04-26T17:04:00;12.30;;;8.37;;
4210;SDS011;2119;48.828;12.396;2023-04-26T17:09:00;5.67;;;2.83;;
4210;SDS011;2119;48.828;12.396;2023-04-26T17:14:01;7.80;;;2.50;;
4210;SDS011;2119;48.828;12.396;2023-04-26T17:19:05;7.47;;;6.30;;
4210;SDS011;2119;48.828;12.396;2023-04-26T17:24:06;3.63;;;3.23;;
4210;SDS011;2119;48.828;12.396;2023-04-26T17:29:07;6.00;;;4.03;;
4210;SDS011;2119;48.828;12.396;2023-04-26T17:34:09;9.95;;;7.28;;
4210;SDS011;2119;48.828;12.396;2023-04-26T17:39:11;4.47;;;3.60;;
4210;SDS011;2119;48.828;12.396;2023-04-26T17:44:18;6.63;;;4.00;;
4210;SDS011;2119;48.828;12.396;2023-04-26T17:49:18;4.67;;;3.57;;
4210;SDS011;2119;48.828;12.396;2023-04-26T17:54:29;2.83;;;2.63;;
4210;SDS011;2119;48.828;12.396;2023-04-26T17:59:37;3.53;;;3.33;;
4210;SDS011;2119;48.828;12.396;2023-04-26T18:04:38;6.57;;;6.00;;
4210;SDS011;2119;48.828;12.396;2023-04-26T18:09:40;3.37;;;3.07;;
4210;SDS011;2119;48.828;12.396;2023-04-26T18:14:41;3.20;;;2.90;;
4210;SDS011;2119;48.828;12.396;2023-04-26T18:24:50;2.60;;;2.40;;
4210;SDS011;2119;48.828;12.396;2023-04-26T18:35:03;3.90;;;3.13;;
4210;SDS011;2119;48.828;12.396;2023-04-26T18:40:11;3.40;;;3.10;;
4210;SDS011;2119;48.828;12.396;2023-04-26T18:45:13;13.87;;;10.20;;
4210;SDS011;2119;48.828;12.396;2023-04-26T18:50:14;3.90;;;3.60;;
4210;SDS011;2119;48.828;12.396;2023-04-26T18:55:30;3.57;;;3.27;;
4210;SDS011;2119;48.828;12.396;2023-04-26T19:05:54;3.80;;;3.50;;
4210;SDS011;2119;48.828;12.396;2023-04-26T19:10:56;3.70;;;3.35;;
4210;SDS011;2119;48.828;12.396;2023-04-26T19:16:12;3.63;;;3.33;;
4210;SDS011;2119;48.828;12.396;2023-04-26T19:21:20;4.80;;;3.00;;
4210;SDS011;2119;48.828;12.396;2023-04-26T19:31:39;4.13;;;3.70;;
4210;SDS011;2119;48.828;12.396;2023-04-26T19:41:43;6.87;;;5.93;;
4210;SDS011;2119;48.828;12.396;2023-04-26T19:46:46;9.48;;;6.45;;
4210;SDS011;2119;48.828;12.396;2023-04-26T19:57:05;12.80;;;8.00;;
4210;SDS011;2119;48.828;12.396;2023-04-26T20:02:05;10.93;;;7.63;;
4210;SDS011;2119;48.828;12.396;2023-04-26T20:07:07;7.17;;;6.57;;
4210;SDS011;2119;48.828;12.396;2023-04-26T20:12:08;8.73;;;6.30;;
4210;SDS011;2119;48.828;12.396;2023-04-26T20:17:08;7.07;;;6.00;;
4210;SDS011;2119;48.828;12.396;2023-04-26T20:22:10;11.03;;;8.13;;
4210;SDS011;2119;48.828;12.396;2023-04-26T20:27:28;8.23;;;7.30;;
4210;SDS011;2119;48.828;12.396;2023-04-26T20:32:36;8.83;;;7.63;;
4210;SDS011;2119;48.828;12.396;2023-04-26T20:37:50;9.03;;;7.07;;
4210;SDS011;2119;48.828;12.396;2023-04-26T20:42:50;5.33;;;4.83;;
4210;SDS011;2119;48.828;12.396;2023-04-26T20:47:53;8.13;;;5.13;;
4210;SDS011;2119;48.828;12.396;2023-04-26T20:52:53;7.20;;;6.13;;
4210;SDS011;2119;48.828;12.396;2023-04-26T20:57:55;5.30;;;4.90;;
4210;SDS011;2119;48.828;12.396;2023-04-26T21:02:55;5.13;;;4.50;;
4210;SDS011;2119;48.828;12.396;2023-04-26T21:07:56;5.50;;;4.97;;
4210;SDS011;2119;48.828;12.396;2023-04-26T21:12:56;5.67;;;5.17;;
4210;SDS011;2119;48.828;12.396;2023-04-26T21:17:56;7.63;;;5.30;;
4210;SDS011;2119;48.828;12.396;2023-04-26T21:22:56;6.85;;;5.88;;
4210;SDS011;2119;48.828;12.396;2023-04-26T21:27:57;7.50;;;4.85;;
4210;SDS011;2119;48.828;12.396;2023-04-26T21:32:57;8.10;;;5.37;;
4210;SDS011;2119;48.828;12.396;2023-04-26T21:37:58;7.60;;;6.10;;
4210;SDS011;2119;48.828;12.396;2023-04-26T21:42:58;9.27;;;5.90;;
4210;SDS011;2119;48.828;12.396;2023-04-26T21:48:00;6.23;;;5.30;;
4210;SDS011;2119;48.828;12.396;2023-04-26T21:53:00;5.73;;;4.90;;
4210;SDS011;2119;48.828;12.396;2023-04-26T21:58:00;4.90;;;4.43;;
4210;SDS011;2119;48.828;12.396;2023-04-26T22:03:02;5.25;;;4.75;;
4210;SDS011;2119;48.828;12.396;2023-04-26T22:08:02;8.87;;;4.90;;
4210;SDS011;2119;48.828;12.396;2023-04-26T22:13:02;4.83;;;4.43;;
4210;SDS011;2119;48.828;12.396;2023-04-26T22:18:04;6.93;;;5.03;;
4210;SDS011;2119;48.828;12.396;2023-04-26T22:23:04;9.10;;;7.35;;
4210;SDS011;2119;48.828;12.396;2023-04-26T22:28:04;8.25;;;5.97;;
4210;SDS011;2119;48.828;12.396;2023-04-26T22:33:04;8.30;;;5.65;;
4210;SDS011;2119;48.828;12.396;2023-04-26T22:38:05;4.13;;;3.60;;
4210;SDS011;2119;48.828;12.396;2023-04-26T22:43:06;7.70;;;5.30;;
4210;SDS011;2119;48.828;12.396;2023-04-26T22:48:06;4.00;;;3.60;;
4210;SDS011;2119;48.828;12.396;2023-04-26T22:53:06;8.82;;;4.57;;
4210;SDS011;2119;48.828;12.396;2023-04-26T22:58:06;5.40;;;4.22;;
4210;SDS011;2119;48.828;12.396;2023-04-26T23:03:08;4.80;;;4.30;;
4210;SDS011;2119;48.828;12.396;2023-04-26T23:08:10;5.93;;;4.30;;
4210;SDS011;2119;48.828;12.396;2023-04-26T23:13:12;5.03;;;4.53;;
4210;SDS011;2119;48.828;12.396;2023-04-26T23:18:13;4.70;;;3.83;;
4210;SDS011;2119;48.828;12.396;2023-04-26T23:23:15;4.40;;;4.00;;
4210;SDS011;2119;48.828;12.396;2023-04-26T23:28:15;8.43;;;4.20;;
4210;SDS011;2119;48.828;12.396;2023-04-26T23:33:16;4.37;;;3.97;;
4210;SDS011;2119;48.828;12.396;2023-04-26T23:38:16;4.53;;;4.00;;
4210;SDS011;2119;48.828;12.396;2023-04-26T23:43:17;4.40;;;4.00;;
4210;SDS011;2119;48.828;12.396;2023-04-26T23:48:17;4.80;;;4.35;;
4210;SDS011;2119;48.828;12.396;2023-04-26T23:53:17;6.83;;;4.83;;
4210;SDS011;2119;48.828;12.396;2023-04-26T23:58:18;4.20;;;3.80;;
